Maldives Meteorological Service

TAFS

Station TAF
VRMM
VRMM 251700Z 2518/2624 05008KT 9000 FEW018 TEMPO 2520/2524 5000 –TSRA SCT017CB=
VRMH
VRMH 251700Z 2518/2618 03004KT 8000 FEW018 TEMPO 2522/2603 FEW019CB=
VRMK
VRMK 251700Z 2518/2618 32005KT 9999 FEW018 TEMPO 2518/2524 FEW018CB=
VRMT
VRMT 251700Z 2518/2618 32004KT 9999 FEW018 TEMPO 2519/2524 5000 -SHRA FEW018CB=
VRMG
VRMG 251700Z 2518/2624 32004KT 9999 FEW018 TEMPO 2519/2524 5000 -SHRA FEW018CB=